Time;durP1;ratioP1;P1;durP2;ratioP2;P2;SDS_P1;SDS_P2;PMS_P1;PMS_P2;Temp;Humidity;BMP_temperature;BMP_pressure;BME280_temperature;BME280_humidity;BME280_pressure;Samples;Min_cycle;Max_cycle;Signal;HPM_P1;HPM_P2
2022/08/01 00:01:30;;;;;;;;;3.00;3.00;;;;;22.55;62.63;101384.25;5080093;28;54670;-75
2022/08/01 00:03:56;;;;;;;;;4.00;4.00;;;;;22.51;63.04;101382.28;5080078;28;45594;-75
2022/08/01 00:06:21;;;;;;;;;2.33;2.33;;;;;22.49;63.29;101387.94;5078768;28;45320;-74
2022/08/01 00:08:46;;;;;;;;;3.00;3.00;;;;;22.53;62.89;101393.66;5080235;28;45274;-75
2022/08/01 00:11:12;;;;;;;;;2.67;2.67;;;;;22.44;63.02;101380.50;5079379;28;45314;-75
2022/08/01 00:13:37;;;;;;;;;4.67;3.33;;;;;22.40;63.11;101376.66;5078698;28;47112;-74
2022/08/01 00:16:03;;;;;;;;;2.67;2.67;;;;;22.36;63.58;101378.19;5083754;27;45432;-75
2022/08/01 00:18:28;;;;;;;;;4.00;3.00;;;;;22.40;63.37;101386.66;5087320;27;45326;-75
2022/08/01 00:20:53;;;;;;;;;4.67;4.67;;;;;22.36;63.90;101378.19;5094741;27;46090;-75
2022/08/01 00:23:19;;;;;;;;;3.00;3.00;;;;;22.33;63.77;101376.75;5078261;28;48483;-75
2022/08/01 00:25:44;;;;;;;;;1.00;1.00;;;;;22.30;64.06;101373.72;5078622;28;45321;-75
2022/08/01 00:28:09;;;;;;;;;4.33;4.33;;;;;22.21;64.18;101367.84;5080264;27;45424;-75
2022/08/01 00:30:35;;;;;;;;;4.67;4.00;;;;;22.25;64.38;101371.72;5079999;28;45508;-75
2022/08/01 00:33:02;;;;;;;;;3.00;3.00;;;;;22.25;64.11;101376.31;5091960;27;48062;-75
2022/08/01 00:35:27;;;;;;;;;2.00;2.00;;;;;22.13;64.05;101360.91;5079894;28;45326;-75
2022/08/01 00:37:52;;;;;;;;;3.33;3.00;;;;;22.20;64.75;101374.31;5079493;28;45313;-75
2022/08/01 00:40:18;;;;;;;;;2.00;2.00;;;;;22.18;64.13;101371.03;5079854;28;45402;-75
2022/08/01 00:42:43;;;;;;;;;3.00;3.00;;;;;22.18;64.61;101371.03;5087950;27;47041;-75
2022/08/01 00:45:09;;;;;;;;;3.00;3.00;;;;;22.14;64.74;101367.13;5079506;28;45361;-75
2022/08/01 00:47:34;;;;;;;;;2.00;2.00;;;;;22.10;64.53;101369.50;5080014;28;45377;-75
2022/08/01 00:50:00;;;;;;;;;6.00;4.33;;;;;22.09;65.24;101369.75;5079421;28;45445;-75
2022/08/01 00:52:25;;;;;;;;;3.00;3.00;;;;;22.08;64.74;101371.63;5079264;28;46534;-75
2022/08/01 00:54:51;;;;;;;;;2.00;1.67;;;;;22.04;65.67;101362.34;5079471;28;45353;-75
2022/08/01 00:57:16;;;;;;;;;4.00;4.00;;;;;22.06;65.54;101363.72;5079908;28;45268;-75
2022/08/01 00:59:41;;;;;;;;;3.00;3.00;;;;;22.08;65.62;101363.50;5079392;28;45304;-75
2022/08/01 01:02:07;;;;;;;;;2.00;2.00;;;;;22.11;65.53;101375.72;5079261;28;45456;-75
2022/08/01 01:04:32;;;;;;;;;2.00;2.00;;;;;22.12;65.95;101366.56;5079585;28;45245;-75
2022/08/01 01:07:17;;;;;;;;;3.33;3.33;;;;;22.11;65.95;101360.31;5079318;28;45426;-75
2022/08/01 01:09:48;;;;;;;;;4.00;4.00;;;;;22.17;66.19;101363.97;5085878;27;46374;-75
2022/08/01 01:12:51;;;;;;;;;3.33;3.00;;;;;22.20;65.85;101358.06;5077670;28;48617;-75
2022/08/01 01:15:23;;;;;;;;;4.33;4.00;;;;;22.24;66.01;101361.13;5079225;28;45288;-75
2022/08/01 01:17:55;;;;;;;;;6.33;4.67;;;;;22.25;65.92;101360.06;5093351;27;45351;-75
2022/08/01 01:20:30;;;;;;;;;3.00;3.00;;;;;22.31;66.01;101365.38;5079175;28;45338;-75
2022/08/01 01:22:56;;;;;;;;;2.00;2.00;;;;;22.40;65.47;101364.97;5079284;28;45338;-75
2022/08/01 01:25:36;;;;;;;;;5.00;5.00;;;;;22.43;65.75;101361.78;5092041;27;45738;-75
2022/08/01 01:28:09;;;;;;;;;3.00;3.00;;;;;22.44;66.13;101363.44;5082847;28;45321;-75
2022/08/01 01:30:37;;;;;;;;;3.33;3.33;;;;;22.41;65.71;101359.34;5082926;28;45381;-75
2022/08/01 01:33:06;;;;;;;;;3.33;2.00;;;;;22.49;65.65;101368.97;5095386;27;47220;-75
2022/08/01 01:35:37;;;;;;;;;3.00;3.00;;;;;22.47;66.17;101362.16;5082649;28;45220;-75
2022/08/01 01:38:16;;;;;;;;;3.00;3.00;;;;;22.52;65.77;101363.06;5082280;28;45271;-75
2022/08/01 01:40:43;;;;;;;;;3.67;3.67;;;;;22.55;65.94;101362.59;5082591;28;45340;-75
2022/08/01 01:43:11;;;;;;;;;2.00;2.00;;;;;22.54;65.63;101358.22;5082275;28;45389;-75
2022/08/01 01:45:37;;;;;;;;;3.00;3.00;;;;;22.55;65.69;101353.66;5082470;28;45357;-75
2022/08/01 01:48:04;;;;;;;;;3.67;3.00;;;;;22.54;65.67;101346.59;5092576;27;45283;-75
2022/08/01 01:50:31;;;;;;;;;3.00;3.00;;;;;22.57;66.09;101344.25;5082457;28;45536;-75
2022/08/01 01:52:58;;;;;;;;;1.67;1.67;;;;;22.60;65.98;101350.25;5081862;28;45350;-75
2022/08/01 01:55:26;;;;;;;;;2.67;2.67;;;;;22.61;65.91;101344.59;5097123;27;45382;-75
2022/08/01 01:57:53;;;;;;;;;3.33;3.33;;;;;22.60;65.34;101347.53;5082500;28;45307;-75
2022/08/01 02:00:19;;;;;;;;;3.33;3.00;;;;;22.55;65.34;101343.63;5080547;28;46606;-75
2022/08/01 02:02:45;;;;;;;;;3.00;3.00;;;;;22.54;65.83;101335.75;5087185;27;48479;-75
2022/08/01 02:05:12;;;;;;;;;4.00;4.00;;;;;22.52;65.81;101336.00;5081940;28;45588;-75
2022/08/01 02:07:39;;;;;;;;;3.00;3.00;;;;;22.49;66.00;101333.75;5081973;28;45201;-75
2022/08/01 02:10:06;;;;;;;;;2.33;2.33;;;;;22.53;66.22;101342.22;5091555;27;47342;-75
2022/08/01 02:12:36;;;;;;;;;4.00;4.00;;;;;22.50;65.82;101343.53;5081841;28;46316;-75
2022/08/01 02:15:03;;;;;;;;;2.67;2.67;;;;;22.49;66.07;101341.88;5089801;27;45277;-75
2022/08/01 02:17:30;;;;;;;;;3.00;3.00;;;;;22.45;66.04;101338.81;5092789;27;45428;-75
2022/08/01 02:19:56;;;;;;;;;2.33;2.33;;;;;22.41;66.47;101339.53;5077196;28;46970;-75
2022/08/01 02:22:33;;;;;;;;;3.00;3.00;;;;;22.44;66.53;101339.06;5077479;28;48675;-74
2022/08/01 02:25:15;;;;;;;;;3.00;3.00;;;;;22.46;66.60;101347.78;5081777;28;45310;-75
2022/08/01 02:27:47;;;;;;;;;3.33;3.33;;;;;22.44;66.38;101341.78;5080330;28;45383;-75
2022/08/01 02:30:13;;;;;;;;;4.33;3.00;;;;;22.44;66.80;101339.06;5081728;28;45375;-75
2022/08/01 02:32:44;;;;;;;;;2.67;2.67;;;;;22.44;66.92;101344.47;5081694;28;45424;-75
2022/08/01 02:35:27;;;;;;;;;4.00;4.00;;;;;22.44;66.48;101342.59;5079544;28;46045;-75
2022/08/01 02:37:57;;;;;;;;;3.33;3.33;;;;;22.45;66.53;101346.16;5081285;28;45317;-75
2022/08/01 02:40:23;;;;;;;;;2.67;2.67;;;;;22.45;67.18;101346.16;5081783;28;45556;-75
2022/08/01 02:42:50;;;;;;;;;3.33;3.33;;;;;22.41;67.00;101334.13;5080167;28;46695;-75
2022/08/01 02:45:22;;;;;;;;;3.00;3.00;;;;;22.48;67.32;101342.97;5081561;28;45405;-75
2022/08/01 02:47:51;;;;;;;;;3.00;3.00;;;;;22.49;66.62;101332.94;5081743;28;45313;-75
2022/08/01 02:50:18;;;;;;;;;2.67;2.67;;;;;22.51;67.02;101334.31;5081250;27;45700;-75
2022/08/01 02:52:48;;;;;;;;;3.00;3.00;;;;;22.53;66.63;101334.09;5080890;28;46035;-75
2022/08/01 02:55:14;;;;;;;;;3.00;3.00;;;;;22.54;67.42;101341.16;5094479;27;45403;-75
2022/08/01 02:57:41;;;;;;;;;2.00;2.00;;;;;22.57;66.79;101343.41;5080178;28;45335;-75
2022/08/01 03:00:07;;;;;;;;;3.00;3.00;;;;;22.57;66.93;101338.81;5092763;27;47479;-75
2022/08/01 03:02:34;;;;;;;;;1.67;1.67;;;;;22.56;67.09;101334.44;5081225;28;45373;-75
2022/08/01 03:05:01;;;;;;;;;2.33;2.33;;;;;22.60;66.85;101339.41;5081415;28;45282;-75
2022/08/01 03:07:29;;;;;;;;;3.33;3.00;;;;;22.57;67.27;101337.97;5076301;28;45467;-75
2022/08/01 03:09:57;;;;;;;;;3.00;3.00;;;;;22.56;67.18;101326.31;5076423;28;47026;-75
2022/08/01 03:12:27;;;;;;;;;2.00;2.00;;;;;22.58;67.31;101331.53;5079651;28;46377;-75
2022/08/01 03:14:56;;;;;;;;;4.00;3.00;;;;;22.61;67.49;101335.63;5081199;28;45167;-75
2022/08/01 03:17:24;;;;;;;;;3.67;3.67;;;;;22.56;67.06;101320.91;5091857;27;45369;-75
2022/08/01 03:19:52;;;;;;;;;4.00;3.00;;;;;22.66;67.19;101322.19;5086756;27;46507;-75
2022/08/01 03:22:20;;;;;;;;;4.67;4.00;;;;;22.68;67.08;101329.00;5079066;28;47319;-75
2022/08/01 03:24:49;;;;;;;;;2.33;2.33;;;;;22.67;67.53;101323.84;5080930;28;45447;-75
2022/08/01 03:27:15;;;;;;;;;4.00;4.00;;;;;22.69;67.13;101330.66;5080787;28;45282;-75
2022/08/01 03:29:43;;;;;;;;;3.00;3.00;;;;;22.73;67.00;101341.00;5076120;27;46015;-75
2022/08/01 03:32:10;;;;;;;;;3.00;3.00;;;;;22.72;67.28;101329.38;5070083;28;45685;-75
2022/08/01 03:34:35;;;;;;;;;3.33;3.33;;;;;22.77;67.65;101329.44;5080699;28;45796;-75
2022/08/01 03:37:10;;;;;;;;;3.00;3.00;;;;;22.79;66.93;101337.34;5083983;27;45315;-75
2022/08/01 03:40:05;;;;;;;;;3.33;3.33;;;;;22.83;67.00;101344.72;5080394;28;45373;-75
2022/08/01 03:42:39;;;;;;;;;2.67;2.67;;;;;22.83;67.47;101336.59;5054177;28;46301;-75
2022/08/01 03:45:12;;;;;;;;;2.00;2.00;;;;;22.86;67.28;101337.19;5093891;27;45472;-75
2022/08/01 03:47:41;;;;;;;;;3.00;3.00;;;;;22.90;66.42;101338.34;5078852;28;45267;-75
2022/08/01 03:50:10;;;;;;;;;3.00;3.00;;;;;22.94;66.17;101342.22;5093710;27;47305;-75
2022/08/01 03:52:39;;;;;;;;;3.00;3.00;;;;;22.96;66.72;101350.94;5079897;27;47650;-75
2022/08/01 03:55:07;;;;;;;;;3.00;3.00;;;;;22.95;66.29;101343.84;5080251;28;45358;-75
2022/08/01 03:57:33;;;;;;;;;2.67;2.67;;;;;23.00;66.38;101338.53;5084838;27;45504;-75
2022/08/01 03:59:59;;;;;;;;;1.00;1.00;;;;;23.02;66.46;101343.72;5078599;28;47183;-75
2022/08/01 04:02:26;;;;;;;;;2.67;2.33;;;;;23.04;66.32;101342.38;5080442;28;45435;-75
2022/08/01 04:04:53;;;;;;;;;2.00;2.00;;;;;23.04;66.28;101341.56;5080390;28;45672;-75
2022/08/01 04:07:29;;;;;;;;;2.00;2.00;;;;;23.07;66.15;101341.91;5078675;28;45350;-75
2022/08/01 04:09:54;;;;;;;;;1.00;0.00;;;;;23.06;66.36;101336.72;5078734;28;46945;-75
2022/08/01 04:12:20;;;;;;;;;2.33;2.33;;;;;23.09;66.38;101341.66;5079772;28;46206;-75
2022/08/01 04:14:46;;;;;;;;;2.00;2.00;;;;;23.10;65.96;101337.06;5080250;28;45611;-74
2022/08/01 04:17:12;;;;;;;;;2.67;2.67;;;;;23.05;66.08;101330.47;5091020;27;45571;-75
2022/08/01 04:19:38;;;;;;;;;1.00;1.00;;;;;23.06;65.75;101332.13;5079960;28;45547;-75
2022/08/01 04:22:04;;;;;;;;;1.00;1.00;;;;;23.02;66.40;101325.53;5089804;27;46982;-75
2022/08/01 04:24:35;;;;;;;;;3.00;3.00;;;;;22.99;66.02;101326.06;5079942;27;45328;-75
2022/08/01 04:27:01;;;;;;;;;1.33;1.33;;;;;23.06;66.01;101334.00;5078738;28;45334;-74
2022/08/01 04:29:29;;;;;;;;;3.00;2.00;;;;;23.06;65.74;101331.31;5079638;27;45485;-75
2022/08/01 04:31:57;;;;;;;;;2.00;2.00;;;;;23.04;66.06;101323.41;5079981;28;46211;-75
2022/08/01 04:34:26;;;;;;;;;2.00;2.00;;;;;23.06;65.18;101329.44;5079694;28;45366;-75
2022/08/01 04:36:55;;;;;;;;;2.33;2.33;;;;;23.04;65.30;101328.00;5079937;28;45752;-74
2022/08/01 04:39:23;;;;;;;;;3.00;3.00;;;;;23.03;64.96;101327.19;5079619;28;45252;-75
2022/08/01 04:41:50;;;;;;;;;1.33;1.33;;;;;23.03;64.78;101321.78;5079352;28;45370;-75
2022/08/01 04:44:16;;;;;;;;;3.67;3.67;;;;;23.03;65.36;101326.38;5079602;28;45584;-74
2022/08/01 04:46:43;;;;;;;;;3.00;3.00;;;;;23.09;64.98;101328.09;5079632;28;45329;-75
2022/08/01 04:49:11;;;;;;;;;2.00;2.00;;;;;23.10;64.47;101318.91;5079739;28;45473;-75
2022/08/01 04:51:48;;;;;;;;;3.00;3.00;;;;;23.03;64.72;101323.66;5079119;28;46424;-75
2022/08/01 04:54:14;;;;;;;;;2.00;2.00;;;;;23.01;64.83;101326.63;5079541;28;45448;-75
2022/08/01 04:56:39;;;;;;;;;3.00;2.00;;;;;23.05;64.74;101332.38;5077553;28;45405;-74
2022/08/01 05:01:50;;;;;;;;;2.00;2.00;;;;;23.18;65.22;101337.50;5079291;28;45751;-75
2022/08/01 05:04:15;;;;;;;;;2.33;2.33;;;;;23.18;64.60;101325.81;5079353;28;45368;-75
2022/08/01 05:06:41;;;;;;;;;2.67;2.67;;;;;23.22;64.55;101335.09;5079417;28;45460;-74
2022/08/01 05:09:06;;;;;;;;;1.00;1.00;;;;;23.24;64.55;101329.44;5079144;28;49546;-75
2022/08/01 05:11:31;;;;;;;;;3.00;3.00;;;;;23.28;64.65;101339.53;5087273;27;47169;-75
2022/08/01 05:13:56;;;;;;;;;4.00;3.00;;;;;23.25;65.35;101340.03;5079150;28;45409;-75
2022/08/01 05:16:22;;;;;;;;;2.33;2.33;;;;;23.28;64.85;101344.97;5088795;27;45477;-75
2022/08/01 05:18:47;;;;;;;;;2.00;2.00;;;;;23.27;65.18;101332.47;5082856;27;46900;-75
2022/08/01 05:21:12;;;;;;;;;2.33;2.33;;;;;23.28;65.41;101346.84;5079154;28;46651;-75
2022/08/01 05:23:38;;;;;;;;;2.00;2.00;;;;;23.30;65.83;101345.56;5079027;28;49163;-75
2022/08/01 05:26:04;;;;;;;;;4.00;4.00;;;;;23.31;65.35;101347.19;5080964;27;45428;-75
2022/08/01 05:28:30;;;;;;;;;4.00;3.33;;;;;23.28;65.46;101349.56;5079272;27;45525;-75
2022/08/01 05:30:56;;;;;;;;;2.33;2.33;;;;;23.26;65.26;101352.53;5078962;28;46546;-75
2022/08/01 05:33:21;;;;;;;;;2.33;2.33;;;;;23.23;65.74;101347.59;5094313;27;45299;-75
2022/08/01 05:35:47;;;;;;;;;2.00;2.00;;;;;23.30;65.79;101356.41;5079043;28;45433;-75
2022/08/01 05:38:12;;;;;;;;;1.00;1.00;;;;;23.27;65.81;101350.63;5077947;28;45334;-75
2022/08/01 05:40:37;;;;;;;;;3.00;3.00;;;;;23.25;65.82;101353.59;5069290;28;45326;-75
2022/08/01 05:43:03;;;;;;;;;3.00;3.00;;;;;23.27;65.96;101356.88;5057171;28;45360;-75
2022/08/01 05:45:28;;;;;;;;;3.00;3.00;;;;;23.25;65.83;101355.50;5058440;28;45376;-75
2022/08/01 05:47:53;;;;;;;;;4.00;4.00;;;;;23.20;65.78;101346.19;5057527;28;45403;-75
2022/08/01 05:50:19;;;;;;;;;2.00;2.00;;;;;23.26;65.41;101354.41;5069471;28;45638;-75
2022/08/01 05:52:44;;;;;;;;;5.00;3.67;;;;;23.24;65.83;101356.53;5067442;28;45349;-75
2022/08/01 05:55:09;;;;;;;;;3.00;3.00;;;;;23.22;65.97;101348.66;5082583;27;45402;-75
2022/08/01 05:57:35;;;;;;;;;4.00;4.00;;;;;23.24;65.84;101354.66;5077618;28;45427;-75
2022/08/01 06:00:00;;;;;;;;;3.00;3.00;;;;;23.22;65.55;101356.78;5077615;28;45373;-75
2022/08/01 06:02:25;;;;;;;;;6.33;6.00;;;;;23.22;65.63;101351.34;5078898;28;45317;-75
2022/08/01 06:04:51;;;;;;;;;3.67;3.67;;;;;23.29;65.57;101360.16;5094442;27;45334;-75
2022/08/01 06:07:16;;;;;;;;;2.67;2.67;;;;;23.25;65.84;101344.66;5078556;27;45496;-75
2022/08/01 06:09:41;;;;;;;;;4.00;4.00;;;;;23.29;65.64;101362.06;5079862;28;46190;-75
2022/08/01 06:12:07;;;;;;;;;2.67;2.67;;;;;23.30;65.66;101358.28;5082062;28;45499;-76
2022/08/01 06:14:32;;;;;;;;;3.33;3.33;;;;;23.31;65.19;101370.75;5082199;28;45369;-76
2022/08/01 06:16:58;;;;;;;;;2.33;2.33;;;;;23.29;65.54;101362.06;5086345;27;45457;-76
2022/08/01 06:19:23;;;;;;;;;4.00;4.00;;;;;23.33;65.45;101369.47;5082976;28;45243;-76
2022/08/01 06:21:48;;;;;;;;;3.00;3.00;;;;;23.31;65.51;101371.59;5071492;28;45350;-75
2022/08/01 06:24:14;;;;;;;;;4.67;4.67;;;;;23.35;65.38;101369.22;5062991;28;45285;-76
2022/08/01 06:26:41;;;;;;;;;5.00;5.00;;;;;23.33;65.44;101357.78;5080999;28;45534;-75
2022/08/01 06:29:07;;;;;;;;;4.33;4.33;;;;;23.40;65.38;101376.66;5080791;27;45376;-76
2022/08/01 06:31:33;;;;;;;;;2.00;2.00;;;;;23.38;65.67;101355.19;5095758;27;45308;-76
2022/08/01 06:33:58;;;;;;;;;3.00;3.00;;;;;23.42;65.13;101360.94;5079153;28;45490;-75
2022/08/01 06:36:25;;;;;;;;;2.33;2.33;;;;;23.41;65.65;101356.59;5080040;28;45376;-76
2022/08/01 06:38:51;;;;;;;;;3.00;3.00;;;;;23.42;65.93;101377.22;5080098;28;46446;-75
2022/08/01 06:41:16;;;;;;;;;2.67;2.67;;;;;23.43;65.89;101371.53;5062140;28;45493;-75
2022/08/01 06:43:41;;;;;;;;;1.00;1.00;;;;;23.42;66.32;101374.50;5079081;28;45378;-75
2022/08/01 06:46:06;;;;;;;;;1.00;1.00;;;;;23.43;66.27;101373.41;5080120;28;45591;-76
2022/08/01 06:48:32;;;;;;;;;5.00;4.33;;;;;23.40;65.95;101374.75;5080023;28;45413;-74
2022/08/01 06:51:13;;;;;;;;;3.00;3.00;;;;;23.39;66.33;101362.25;5079849;28;45343;-75
2022/08/01 06:53:38;;;;;;;;;4.00;4.00;;;;;23.43;66.23;101363.41;5080082;28;45430;-75
2022/08/01 06:56:05;;;;;;;;;4.00;4.00;;;;;23.43;66.89;101357.16;5078453;28;46675;-75
2022/08/01 06:58:30;;;;;;;;;5.00;4.33;;;;;23.52;66.53;101369.25;5079727;28;45367;-75
2022/08/01 07:00:56;;;;;;;;;5.00;5.00;;;;;23.49;65.86;101367.03;5061869;28;45640;-76
2022/08/01 07:03:21;;;;;;;;;3.00;3.00;;;;;23.50;65.99;101355.13;5062099;28;45305;-76
2022/08/01 07:05:46;;;;;;;;;4.00;4.00;;;;;23.56;65.59;101362.25;5061742;28;47170;-75
2022/08/01 07:08:12;;;;;;;;;4.00;4.00;;;;;23.57;65.60;101363.91;5061450;28;49955;-75
2022/08/01 07:10:37;;;;;;;;;4.00;3.67;;;;;23.61;65.55;101375.06;5079726;28;45255;-76
2022/08/01 07:13:02;;;;;;;;;4.00;3.67;;;;;23.62;65.93;101376.72;5077264;28;45290;-77
2022/08/01 07:15:28;;;;;;;;;3.00;3.00;;;;;23.65;65.75;101380.84;5079071;28;45442;-76
2022/08/01 07:17:53;;;;;;;;;4.00;4.00;;;;;23.66;65.10;101390.63;5076971;27;45384;-76
2022/08/01 07:20:18;;;;;;;;;2.00;2.00;;;;;23.71;65.97;101390.69;5078120;27;45233;-76
2022/08/01 07:22:44;;;;;;;;;5.00;4.00;;;;;23.69;65.32;101377.38;5079148;27;45235;-76
2022/08/01 07:25:09;;;;;;;;;4.67;4.00;;;;;23.75;65.89;101381.00;5079391;27;45378;-76
2022/08/01 07:27:36;;;;;;;;;3.00;3.00;;;;;23.78;65.31;101375.06;5079158;27;46414;-76
2022/08/01 07:30:03;;;;;;;;;4.33;4.00;;;;;23.81;65.86;101381.88;5079447;27;45597;-76
2022/08/01 07:32:29;;;;;;;;;4.00;4.00;;;;;23.77;66.17;101375.31;5075401;27;46454;-75
2022/08/01 07:34:54;;;;;;;;;3.00;3.00;;;;;23.73;66.26;101369.56;5077092;28;45417;-76
2022/08/01 07:37:20;;;;;;;;;4.67;4.67;;;;;23.72;66.71;101378.78;5080507;28;46618;-76
2022/08/01 07:39:46;;;;;;;;;4.33;4.33;;;;;23.75;66.23;101380.16;5080692;28;45294;-76
2022/08/01 07:42:11;;;;;;;;;3.00;3.00;;;;;23.73;66.50;101377.69;5080796;28;45492;-76
2022/08/01 07:44:37;;;;;;;;;4.00;4.00;;;;;23.79;66.58;101381.34;5080597;28;45536;-76
2022/08/01 07:47:03;;;;;;;;;4.00;2.67;;;;;23.83;66.59;101383.28;5080416;28;46102;-76
2022/08/01 07:49:29;;;;;;;;;3.00;3.00;;;;;23.91;66.56;101378.53;5080684;28;45373;-77
2022/08/01 07:51:55;;;;;;;;;5.67;4.00;;;;;23.94;66.34;101386.97;5080262;28;45497;-76
2022/08/01 07:54:23;;;;;;;;;4.00;4.00;;;;;23.95;66.09;101385.88;5079099;28;46967;-76
2022/08/01 07:56:49;;;;;;;;;6.33;5.00;;;;;24.00;66.31;101385.16;5080121;28;46520;-76
2022/08/01 07:59:14;;;;;;;;;4.33;4.00;;;;;24.01;66.01;101388.69;5083945;27;45557;-77
2022/08/01 08:01:39;;;;;;;;;3.00;3.00;;;;;24.05;65.92;101387.13;5080195;28;45353;-76
2022/08/01 08:04:04;;;;;;;;;5.00;4.00;;;;;24.14;65.95;101395.69;5080415;28;45330;-76
2022/08/01 08:06:30;;;;;;;;;5.67;5.67;;;;;24.16;65.40;101397.09;5080120;28;46266;-76
2022/08/01 08:08:55;;;;;;;;;4.67;4.33;;;;;24.20;65.87;101400.13;5078857;28;45361;-76
2022/08/01 08:11:20;;;;;;;;;3.00;3.00;;;;;24.23;65.11;101399.63;5085656;27;45293;-76
2022/08/01 08:13:46;;;;;;;;;7.00;5.67;;;;;24.24;65.37;101401.25;5080143;27;45332;-75
2022/08/01 08:16:11;;;;;;;;;5.00;2.67;;;;;24.20;64.60;101411.81;5073741;27;48423;-75
2022/08/01 08:18:38;;;;;;;;;2.67;2.00;;;;;24.24;64.63;101412.09;5076974;28;45325;-76
2022/08/01 08:21:04;;;;;;;;;4.00;4.00;;;;;24.15;64.59;101408.19;5076537;27;45565;-77
2022/08/01 08:26:13;;;;;;;;;3.67;3.33;;;;;24.19;64.35;101395.75;5079139;28;45382;-76
2022/08/01 08:28:39;;;;;;;;;3.00;3.00;;;;;24.23;64.34;101409.66;5076987;28;45906;-76
2022/08/01 08:31:04;;;;;;;;;3.00;3.00;;;;;24.22;64.13;101408.84;5077934;28;45414;-76
2022/08/01 08:33:30;;;;;;;;;4.00;4.00;;;;;24.30;64.53;101405.69;5079202;27;46372;-79
2022/08/01 08:35:55;;;;;;;;;2.33;2.33;;;;;24.33;64.26;101399.75;5077265;28;47267;-77
2022/08/01 08:38:20;;;;;;;;;4.67;3.00;;;;;24.41;64.48;101403.94;5076787;28;45359;-78
2022/08/01 08:40:46;;;;;;;;;4.67;3.00;;;;;24.56;64.00;101399.75;5077558;28;45379;-76
2022/08/01 08:43:12;;;;;;;;;5.00;4.00;;;;;24.61;63.89;101386.25;5078893;28;45369;-76
2022/08/01 08:45:38;;;;;;;;;4.00;4.00;;;;;24.78;63.97;101397.00;5082578;27;47664;-77
2022/08/01 08:48:05;;;;;;;;;7.00;5.00;;;;;24.91;63.50;101397.72;5071758;28;45384;-79
2022/08/01 08:50:31;;;;;;;;;5.00;5.00;;;;;24.98;63.50;101395.63;5077420;28;45323;-80
2022/08/01 08:53:00;;;;;;;;;6.00;5.00;;;;;25.09;63.08;101407.44;5080139;28;45456;-78
2022/08/01 08:55:26;;;;;;;;;3.00;3.00;;;;;25.08;63.05;101401.16;5080726;28;45436;-78
2022/08/01 08:57:52;;;;;;;;;5.00;5.00;;;;;25.12;62.47;101387.88;5078523;28;45908;-77
2022/08/01 09:00:18;;;;;;;;;3.00;3.00;;;;;25.21;62.51;101388.25;5076925;27;45517;-77
2022/08/01 09:02:46;;;;;;;;;2.00;2.00;;;;;25.25;62.02;101388.53;5066944;28;46088;-77
2022/08/01 09:05:12;;;;;;;;;2.33;2.33;;;;;25.30;61.89;101391.31;5073959;28;48108;-77
2022/08/01 09:07:37;;;;;;;;;2.67;2.67;;;;;25.34;61.00;101376.09;5079558;28;45362;-77
2022/08/01 09:10:04;;;;;;;;;2.00;2.00;;;;;25.54;61.00;101386.34;5081814;28;45538;-77
2022/08/01 09:12:29;;;;;;;;;4.00;2.33;;;;;25.64;60.70;101385.63;5080222;28;45416;-77
2022/08/01 09:14:55;;;;;;;;;3.00;3.00;;;;;25.82;60.49;101380.84;5079309;28;48427;-77
2022/08/01 09:17:20;;;;;;;;;2.00;2.00;;;;;25.97;59.69;101391.81;5085851;27;45454;-78
2022/08/01 09:19:51;;;;;;;;;2.67;2.67;;;;;26.00;58.39;101387.75;5081422;28;45232;-78
2022/08/01 09:22:20;;;;;;;;;3.33;2.67;;;;;25.97;58.74;101389.09;5066140;28;46297;-78
2022/08/01 09:25:07;;;;;;;;;2.33;2.33;;;;;26.01;58.41;101380.41;5059133;28;48167;-77
2022/08/01 09:27:34;;;;;;;;;2.00;2.00;;;;;26.10;57.89;101385.09;5079764;28;45329;-76
2022/08/01 09:30:12;;;;;;;;;3.33;2.00;;;;;26.10;57.53;101395.97;5069990;28;45455;-77
2022/08/01 09:33:02;;;;;;;;;1.33;1.33;;;;;26.04;56.96;101393.50;5078615;28;45381;-77
2022/08/01 09:35:34;;;;;;;;;1.67;1.33;;;;;26.01;57.38;101394.81;5068108;28;47918;-77
2022/08/01 09:38:20;;;;;;;;;4.33;3.67;;;;;26.01;57.34;101404.91;5074023;28;45536;-77
2022/08/01 09:40:55;;;;;;;;;3.00;2.33;;;;;26.00;57.36;101409.53;5059911;28;45470;-78
2022/08/01 09:43:25;;;;;;;;;3.00;1.00;;;;;25.91;56.77;101411.94;5058627;28;46546;-76
2022/08/01 09:45:51;;;;;;;;;2.00;2.00;;;;;25.82;57.08;101405.34;5077944;27;46186;-77
2022/08/01 09:48:17;;;;;;;;;0.00;0.00;;;;;25.73;56.45;101402.28;5078877;28;45659;-77
2022/08/01 09:50:45;;;;;;;;;1.67;1.67;;;;;25.70;57.33;101405.53;5074714;28;45485;-76
2022/08/01 09:53:11;;;;;;;;;2.00;2.00;;;;;25.64;56.67;101390.22;5065365;28;45489;-76
2022/08/01 09:55:38;;;;;;;;;1.00;1.00;;;;;25.62;56.58;101387.78;5077457;28;47150;-76
2022/08/01 09:58:04;;;;;;;;;3.00;1.67;;;;;25.57;56.80;101402.16;5075376;28;45606;-76
2022/08/01 10:00:31;;;;;;;;;2.00;1.00;;;;;25.45;56.96;101385.19;5077310;28;45454;-76
2022/08/01 10:02:57;;;;;;;;;2.33;2.33;;;;;25.39;57.24;101400.63;5073944;28;46817;-76
2022/08/01 10:05:34;;;;;;;;;3.00;3.00;;;;;25.38;56.88;101409.88;5075554;27;46236;-78
2022/08/01 10:08:03;;;;;;;;;3.00;3.00;;;;;25.34;56.62;101409.56;5068683;28;45572;-76
2022/08/01 10:10:28;;;;;;;;;1.00;1.00;;;;;25.30;56.67;101399.47;5081637;28;45235;-77
2022/08/01 10:12:56;;;;;;;;;2.00;2.00;;;;;25.29;56.82;101406.00;5080032;28;46787;-77
2022/08/01 10:15:22;;;;;;;;;1.33;1.33;;;;;25.26;56.68;101418.19;5079699;28;48337;-75
2022/08/01 10:17:56;;;;;;;;;3.33;3.00;;;;;25.20;56.09;101417.31;5083138;27;45454;-75
2022/08/01 10:20:24;;;;;;;;;4.00;3.00;;;;;25.17;57.18;101426.00;5077005;28;45619;-75
2022/08/01 10:22:53;;;;;;;;;6.67;6.00;;;;;25.24;57.53;101419.53;5082152;28;45425;-75
2022/08/01 10:25:20;;;;;;;;;4.00;4.00;;;;;25.29;57.58;101425.03;5081411;28;45613;-75
2022/08/01 10:27:49;;;;;;;;;7.33;4.00;;;;;25.44;58.06;101411.56;5081626;28;45431;-75
2022/08/01 10:30:14;;;;;;;;;6.33;6.33;;;;;25.66;57.79;101412.56;5082059;28;45403;-75
2022/08/01 10:32:42;;;;;;;;;4.67;4.00;;;;;25.79;56.88;101414.03;5091449;27;45841;-75
2022/08/01 10:35:09;;;;;;;;;6.00;6.00;;;;;25.80;56.10;101407.50;5082558;28;45401;-77
2022/08/01 10:37:35;;;;;;;;;4.67;4.67;;;;;25.86;56.74;101406.47;5082207;28;45412;-77
2022/08/01 10:40:02;;;;;;;;;6.33;6.33;;;;;26.10;56.88;101419.69;5084749;28;45418;-76
2022/08/01 10:42:28;;;;;;;;;4.67;4.67;;;;;26.24;56.02;101406.41;5082886;28;46181;-76
2022/08/01 10:44:55;;;;;;;;;5.33;5.33;;;;;26.33;56.09;101404.00;5082328;28;45815;-77
2022/08/01 10:47:33;;;;;;;;;6.67;6.67;;;;;26.52;55.01;101418.03;5074488;28;45358;-76
2022/08/01 10:50:08;;;;;;;;;5.00;5.00;;;;;26.66;55.53;101401.97;5076415;28;45508;-77
2022/08/01 10:52:33;;;;;;;;;7.00;7.00;;;;;26.85;54.35;101406.94;5073669;28;45478;-76
2022/08/01 10:55:09;;;;;;;;;4.33;4.33;;;;;26.96;53.50;101400.41;5065784;28;46900;-77
2022/08/01 10:57:47;;;;;;;;;5.00;5.00;;;;;27.16;53.39;101396.09;5065368;28;45329;-76
2022/08/01 11:00:20;;;;;;;;;5.00;5.00;;;;;27.31;52.80;101392.56;5070493;28;45520;-77
2022/08/01 11:03:00;;;;;;;;;6.33;6.33;;;;;27.41;52.45;101391.75;5060461;27;46279;-75
2022/08/01 11:05:28;;;;;;;;;6.33;4.67;;;;;27.35;52.49;101392.81;5080441;28;45702;-76
2022/08/01 11:07:54;;;;;;;;;5.33;5.33;;;;;27.27;52.11;101388.75;5068180;28;45670;-76
2022/08/01 11:10:34;;;;;;;;;7.33;6.00;;;;;27.26;52.76;101391.75;5075063;28;45331;-76
2022/08/01 11:13:02;;;;;;;;;5.00;5.00;;;;;27.27;52.18;101396.13;5092153;27;46086;-76
2022/08/01 11:15:28;;;;;;;;;5.67;5.33;;;;;27.30;52.44;101401.84;5082070;28;45610;-76
2022/08/01 11:17:54;;;;;;;;;6.00;5.33;;;;;27.30;52.04;101390.94;5085561;27;45716;-76
2022/08/01 11:20:25;;;;;;;;;5.00;5.00;;;;;27.30;51.66;101392.84;5081991;28;45331;-76
2022/08/01 11:23:06;;;;;;;;;7.00;7.00;;;;;27.37;52.21;101395.28;5078451;28;45436;-76
2022/08/01 11:25:37;;;;;;;;;5.67;5.67;;;;;27.46;51.60;101394.47;5077204;28;47334;-76
2022/08/01 11:28:19;;;;;;;;;3.67;2.33;;;;;27.52;51.60;101394.47;5081312;28;45478;-76
2022/08/01 11:30:47;;;;;;;;;4.67;4.00;;;;;27.63;51.51;101384.38;5081858;28;45237;-76
2022/08/01 11:33:13;;;;;;;;;7.00;6.00;;;;;27.79;51.66;101391.47;5082708;28;45444;-76